sensor_id;sensor_type;location;lat;lon;timestamp;pressure;altitude;pressure_sealevel;temperature;humidity
71424;BME280;59240;51.370;-0.486;2023-03-23T00:00:00;99600.31;;;12.01;75.94
71424;BME280;59240;51.370;-0.486;2023-03-23T00:02:30;99622.44;;;12.11;75.80
71424;BME280;59240;51.370;-0.486;2023-03-23T00:04:58;99626.09;;;12.07;75.77
71424;BME280;59240;51.370;-0.486;2023-03-23T00:07:25;99624.66;;;12.01;74.70
71424;BME280;59240;51.370;-0.486;2023-03-23T00:09:53;99592.19;;;11.88;75.20
71424;BME280;59240;51.370;-0.486;2023-03-23T00:12:21;99614.44;;;12.14;74.59
71424;BME280;59240;51.370;-0.486;2023-03-23T00:14:56;99591.41;;;12.05;74.65
71424;BME280;59240;51.370;-0.486;2023-03-23T00:17:22;99628.22;;;12.18;74.14
71424;BME280;59240;51.370;-0.486;2023-03-23T00:19:49;99580.41;;;11.98;74.45
71424;BME280;59240;51.370;-0.486;2023-03-23T00:22:16;99582.94;;;12.00;74.61
71424;BME280;59240;51.370;-0.486;2023-03-23T00:24:47;99626.84;;;12.28;74.89
71424;BME280;59240;51.370;-0.486;2023-03-23T00:27:13;99585.34;;;12.04;74.37
71424;BME280;59240;51.370;-0.486;2023-03-23T00:29:40;99618.63;;;12.18;74.13
71424;BME280;59240;51.370;-0.486;2023-03-23T00:32:09;99579.00;;;11.91;74.86
71424;BME280;59240;51.370;-0.486;2023-03-23T00:34:39;99626.81;;;12.11;74.64
71424;BME280;59240;51.370;-0.486;2023-03-23T00:37:06;99643.88;;;12.18;74.25
71424;BME280;59240;51.370;-0.486;2023-03-23T00:39:32;99595.84;;;11.84;73.55
71424;BME280;59240;51.370;-0.486;2023-03-23T00:41:58;99634.38;;;11.98;73.50
71424;BME280;59240;51.370;-0.486;2023-03-23T00:44:30;99655.44;;;12.12;73.98
71424;BME280;59240;51.370;-0.486;2023-03-23T00:46:57;99654.88;;;12.05;73.15
71424;BME280;59240;51.370;-0.486;2023-03-23T00:49:25;99632.75;;;11.95;73.35
71424;BME280;59240;51.370;-0.486;2023-03-23T00:51:55;99666.59;;;11.97;72.58
71424;BME280;59240;51.370;-0.486;2023-03-23T00:54:22;99660.94;;;12.06;73.15
71424;BME280;59240;51.370;-0.486;2023-03-23T00:56:48;99645.16;;;11.90;73.18
71424;BME280;59240;51.370;-0.486;2023-03-23T00:59:14;99607.88;;;11.68;72.83
71424;BME280;59240;51.370;-0.486;2023-03-23T01:01:39;99661.31;;;11.98;72.88
71424;BME280;59240;51.370;-0.486;2023-03-23T01:04:06;99665.03;;;11.93;72.21
71424;BME280;59240;51.370;-0.486;2023-03-23T01:06:33;99648.44;;;11.75;72.53
71424;BME280;59240;51.370;-0.486;2023-03-23T01:09:01;99628.88;;;11.65;72.47
71424;BME280;59240;51.370;-0.486;2023-03-23T01:11:28;99622.25;;;11.58;72.29
71424;BME280;59240;51.370;-0.486;2023-03-23T01:13:54;99625.91;;;11.54;72.69
71424;BME280;59240;51.370;-0.486;2023-03-23T01:16:20;99674.28;;;11.81;72.67
71424;BME280;59240;51.370;-0.486;2023-03-23T01:18:45;99675.13;;;11.82;72.73
71424;BME280;59240;51.370;-0.486;2023-03-23T01:21:13;99676.41;;;11.71;73.00
71424;BME280;59240;51.370;-0.486;2023-03-23T01:23:39;99678.94;;;11.73;73.11
71424;BME280;59240;51.370;-0.486;2023-03-23T01:26:07;99663.38;;;11.51;73.10
71424;BME280;59240;51.370;-0.486;2023-03-23T01:28:34;99688.09;;;11.63;72.97
71424;BME280;59240;51.370;-0.486;2023-03-23T01:31:05;99659.69;;;11.36;73.50
71424;BME280;59240;51.370;-0.486;2023-03-23T01:33:31;99643.13;;;11.17;73.88
71424;BME280;59240;51.370;-0.486;2023-03-23T01:35:58;99687.34;;;11.40;73.59
71424;BME280;59240;51.370;-0.486;2023-03-23T01:38:27;99689.03;;;11.41;73.41
71424;BME280;59240;51.370;-0.486;2023-03-23T01:40:52;99699.19;;;11.47;73.04
71424;BME280;59240;51.370;-0.486;2023-03-23T01:43:18;99711.31;;;11.48;73.59
71424;BME280;59240;51.370;-0.486;2023-03-23T01:45:43;99664.13;;;11.14;72.43
71424;BME280;59240;51.370;-0.486;2023-03-23T01:48:20;99726.31;;;11.43;72.97
71424;BME280;59240;51.370;-0.486;2023-03-23T01:51:02;99713.28;;;11.43;73.69
71424;BME280;59240;51.370;-0.486;2023-03-23T01:53:55;99702.84;;;11.43;72.97
71424;BME280;59240;51.370;-0.486;2023-03-23T01:56:30;99699.53;;;11.40;73.61
71424;BME280;59240;51.370;-0.486;2023-03-23T01:58:58;99704.78;;;11.38;73.18
71424;BME280;59240;51.370;-0.486;2023-03-23T02:01:24;99685.34;;;11.25;73.07
71424;BME280;59240;51.370;-0.486;2023-03-23T02:03:52;99672.63;;;11.19;73.03
71424;BME280;59240;51.370;-0.486;2023-03-23T02:06:18;99694.75;;;11.29;73.13
71424;BME280;59240;51.370;-0.486;2023-03-23T02:08:44;99676.09;;;11.18;73.50
71424;BME280;59240;51.370;-0.486;2023-03-23T02:11:18;99710.25;;;11.32;72.98
71424;BME280;59240;51.370;-0.486;2023-03-23T02:13:45;99713.94;;;11.28;72.92
71424;BME280;59240;51.370;-0.486;2023-03-23T02:16:21;99690.31;;;11.11;72.73
71424;BME280;59240;51.370;-0.486;2023-03-23T02:19:22;99704.53;;;11.24;73.39
71424;BME280;59240;51.370;-0.486;2023-03-23T02:22:16;99716.13;;;11.17;73.19
71424;BME280;59240;51.370;-0.486;2023-03-23T02:24:56;99694.06;;;11.04;72.80
71424;BME280;59240;51.370;-0.486;2023-03-23T02:27:45;99707.78;;;11.09;73.09
71424;BME280;59240;51.370;-0.486;2023-03-23T02:36:57;99694.19;;;10.80;73.18
71424;BME280;59240;51.370;-0.486;2023-03-23T02:39:19;99680.88;;;10.66;73.93
71424;BME280;59240;51.370;-0.486;2023-03-23T02:42:08;99709.88;;;10.79;74.21
71424;BME280;59240;51.370;-0.486;2023-03-23T02:44:36;99694.78;;;10.65;73.77
71424;BME280;59240;51.370;-0.486;2023-03-23T02:47:05;99662.69;;;10.43;74.17
71424;BME280;59240;51.370;-0.486;2023-03-23T02:49:36;99678.28;;;10.43;73.95
71424;BME280;59240;51.370;-0.486;2023-03-23T02:52:11;99697.88;;;10.53;75.56
71424;BME280;59240;51.370;-0.486;2023-03-23T02:54:44;99680.03;;;10.44;75.15
71424;BME280;59240;51.370;-0.486;2023-03-23T02:57:11;99672.44;;;10.37;75.16
71424;BME280;59240;51.370;-0.486;2023-03-23T02:59:36;99658.19;;;10.24;74.97
71424;BME280;59240;51.370;-0.486;2023-03-23T03:02:12;99685.47;;;10.37;75.73
71424;BME280;59240;51.370;-0.486;2023-03-23T03:04:40;99703.31;;;10.47;75.42
71424;BME280;59240;51.370;-0.486;2023-03-23T03:07:30;99714.22;;;10.56;76.22
71424;BME280;59240;51.370;-0.486;2023-03-23T03:15:13;99689.00;;;10.35;76.64
71424;BME280;59240;51.370;-0.486;2023-03-23T03:17:55;99710.22;;;10.48;76.62
71424;BME280;59240;51.370;-0.486;2023-03-23T03:20:25;99696.66;;;10.39;75.44
71424;BME280;59240;51.370;-0.486;2023-03-23T03:22:52;99686.47;;;10.33;76.12
71424;BME280;59240;51.370;-0.486;2023-03-23T03:25:19;99701.00;;;10.39;76.49
71424;BME280;59240;51.370;-0.486;2023-03-23T03:27:47;99675.50;;;10.25;76.38
71424;BME280;59240;51.370;-0.486;2023-03-23T03:30:19;99726.22;;;10.60;76.51
71424;BME280;59240;51.370;-0.486;2023-03-23T03:32:48;99693.97;;;10.41;75.83
71424;BME280;59240;51.370;-0.486;2023-03-23T03:35:16;99655.97;;;10.13;76.40
71424;BME280;59240;51.370;-0.486;2023-03-23T03:37:42;99684.94;;;10.28;75.87
71424;BME280;59240;51.370;-0.486;2023-03-23T03:40:13;99723.91;;;10.53;75.86
71424;BME280;59240;51.370;-0.486;2023-03-23T03:42:41;99740.16;;;10.59;75.50
71424;BME280;59240;51.370;-0.486;2023-03-23T03:45:13;99743.78;;;10.55;76.60
71424;BME280;59240;51.370;-0.486;2023-03-23T03:47:38;99715.78;;;10.38;75.87
71424;BME280;59240;51.370;-0.486;2023-03-23T03:50:05;99696.41;;;10.22;76.36
71424;BME280;59240;51.370;-0.486;2023-03-23T03:52:31;99735.34;;;10.49;76.14
71424;BME280;59240;51.370;-0.486;2023-03-23T03:54:57;99698.22;;;10.20;76.02
71424;BME280;59240;51.370;-0.486;2023-03-23T03:57:23;99727.75;;;10.43;76.21
71424;BME280;59240;51.370;-0.486;2023-03-23T03:59:49;99716.78;;;10.34;75.61
71424;BME280;59240;51.370;-0.486;2023-03-23T04:02:16;99725.75;;;10.27;75.56
71424;BME280;59240;51.370;-0.486;2023-03-23T04:04:42;99730.03;;;10.28;76.27
71424;BME280;59240;51.370;-0.486;2023-03-23T04:07:09;99734.41;;;10.28;75.80
71424;BME280;59240;51.370;-0.486;2023-03-23T04:09:37;99725.03;;;10.22;76.26
71424;BME280;59240;51.370;-0.486;2023-03-23T04:12:03;99745.44;;;10.34;75.67
71424;BME280;59240;51.370;-0.486;2023-03-23T04:14:29;99755.84;;;10.34;75.85
71424;BME280;59240;51.370;-0.486;2023-03-23T04:16:55;99735.44;;;10.22;75.72
71424;BME280;59240;51.370;-0.486;2023-03-23T04:19:23;99712.81;;;10.01;75.95
71424;BME280;59240;51.370;-0.486;2023-03-23T04:21:48;99720.63;;;10.01;76.19
71424;BME280;59240;51.370;-0.486;2023-03-23T04:24:15;99711.41;;;9.92;76.39
71424;BME280;59240;51.370;-0.486;2023-03-23T04:26:40;99752.19;;;10.15;76.74
71424;BME280;59240;51.370;-0.486;2023-03-23T04:29:08;99746.19;;;10.13;76.52
71424;BME280;59240;51.370;-0.486;2023-03-23T04:31:34;99767.59;;;10.21;76.50
71424;BME280;59240;51.370;-0.486;2023-03-23T04:34:01;99760.91;;;10.14;76.31
71424;BME280;59240;51.370;-0.486;2023-03-23T04:36:27;99754.16;;;10.08;76.39
71424;BME280;59240;51.370;-0.486;2023-03-23T04:38:56;99758.66;;;10.05;76.78
71424;BME280;59240;51.370;-0.486;2023-03-23T04:41:22;99767.88;;;10.13;77.78
71424;BME280;59240;51.370;-0.486;2023-03-23T04:43:49;99767.88;;;10.13;76.76
71424;BME280;59240;51.370;-0.486;2023-03-23T04:46:18;99747.50;;;10.01;77.56
71424;BME280;59240;51.370;-0.486;2023-03-23T04:48:44;99774.13;;;10.08;77.13
71424;BME280;59240;51.370;-0.486;2023-03-23T04:51:11;99776.47;;;10.15;76.82
71424;BME280;59240;51.370;-0.486;2023-03-23T04:53:40;99770.53;;;10.12;76.88
71424;BME280;59240;51.370;-0.486;2023-03-23T04:56:06;99757.88;;;10.03;77.38
71424;BME280;59240;51.370;-0.486;2023-03-23T04:58:32;99752.19;;;9.92;77.53
71424;BME280;59240;51.370;-0.486;2023-03-23T05:01:01;99759.00;;;9.96;77.29
71424;BME280;59240;51.370;-0.486;2023-03-23T05:03:26;99769.41;;;9.96;77.43
71424;BME280;59240;51.370;-0.486;2023-03-23T05:05:52;99742.34;;;9.76;77.61
71424;BME280;59240;51.370;-0.486;2023-03-23T05:08:24;99771.09;;;9.97;79.35
71424;BME280;59240;51.370;-0.486;2023-03-23T05:10:54;99767.78;;;9.92;77.79
71424;BME280;59240;51.370;-0.486;2023-03-23T05:13:20;99745.72;;;9.78;78.11
71424;BME280;59240;51.370;-0.486;2023-03-23T05:15:47;99778.06;;;9.95;78.27
71424;BME280;59240;51.370;-0.486;2023-03-23T05:18:12;99771.31;;;9.91;78.63
71424;BME280;59240;51.370;-0.486;2023-03-23T05:20:38;99767.00;;;9.90;78.59
71424;BME280;59240;51.370;-0.486;2023-03-23T05:23:04;99786.56;;;10.00;78.47
71424;BME280;59240;51.370;-0.486;2023-03-23T05:25:30;99764.44;;;9.88;78.77
71424;BME280;59240;51.370;-0.486;2023-03-23T05:27:58;99803.56;;;10.10;79.56
71424;BME280;59240;51.370;-0.486;2023-03-23T05:30:24;99778.06;;;9.95;78.49
71424;BME280;59240;51.370;-0.486;2023-03-23T05:32:50;99795.81;;;10.08;78.81
71424;BME280;59240;51.370;-0.486;2023-03-23T05:35:17;99796.69;;;10.09;78.71
71424;BME280;59240;51.370;-0.486;2023-03-23T05:37:44;99803.44;;;10.13;78.70
71424;BME280;59240;51.370;-0.486;2023-03-23T05:40:10;99800.84;;;10.13;78.55
71424;BME280;59240;51.370;-0.486;2023-03-23T05:42:38;99807.75;;;10.14;79.05
71424;BME280;59240;51.370;-0.486;2023-03-23T05:45:05;99750.50;;;9.91;78.58
71424;BME280;59240;51.370;-0.486;2023-03-23T05:47:34;99728.41;;;9.77;78.42
71424;BME280;59240;51.370;-0.486;2023-03-23T05:49:59;99743.53;;;9.91;79.33
71424;BME280;59240;51.370;-0.486;2023-03-23T05:52:26;99772.22;;;10.13;78.29
71424;BME280;59240;51.370;-0.486;2023-03-23T05:54:52;99747.47;;;10.03;78.28
71424;BME280;59240;51.370;-0.486;2023-03-23T05:57:18;99751.75;;;10.04;78.59
71424;BME280;59240;51.370;-0.486;2023-03-23T05:59:47;99745.06;;;9.97;77.91
71424;BME280;59240;51.370;-0.486;2023-03-23T06:02:12;99744.84;;;10.03;78.26
71424;BME280;59240;51.370;-0.486;2023-03-23T06:04:40;99750.91;;;10.03;78.50
71424;BME280;59240;51.370;-0.486;2023-03-23T06:07:07;99744.00;;;10.02;78.57
71424;BME280;59240;51.370;-0.486;2023-03-23T06:09:33;99769.41;;;10.19;79.18
71424;BME280;59240;51.370;-0.486;2023-03-23T06:11:58;99750.56;;;10.12;79.15
71424;BME280;59240;51.370;-0.486;2023-03-23T06:14:24;99751.31;;;10.16;78.88
71424;BME280;59240;51.370;-0.486;2023-03-23T06:16:49;99759.00;;;10.19;78.39
71424;BME280;59240;51.370;-0.486;2023-03-23T06:19:18;99725.81;;;10.01;79.15
71424;BME280;59240;51.370;-0.486;2023-03-23T06:21:43;99732.50;;;10.08;79.19
71424;BME280;59240;51.370;-0.486;2023-03-23T06:24:09;99760.81;;;10.17;78.89
71424;BME280;59240;51.370;-0.486;2023-03-23T06:26:37;99768.44;;;10.22;80.80
71424;BME280;59240;51.370;-0.486;2023-03-23T06:29:07;99780.19;;;10.33;80.30
71424;BME280;59240;51.370;-0.486;2023-03-23T06:31:48;99780.09;;;10.36;80.85
71424;BME280;59240;51.370;-0.486;2023-03-23T06:34:16;99779.97;;;10.39;79.70
71424;BME280;59240;51.370;-0.486;2023-03-23T06:36:42;99746.56;;;10.27;79.66
71424;BME280;59240;51.370;-0.486;2023-03-23T06:39:10;99752.47;;;10.32;79.47
71424;BME280;59240;51.370;-0.486;2023-03-23T06:41:38;99725.03;;;10.22;80.13
71424;BME280;59240;51.370;-0.486;2023-03-23T06:44:03;99727.22;;;10.34;80.19
71424;BME280;59240;51.370;-0.486;2023-03-23T06:46:29;99779.66;;;10.71;81.02
71424;BME280;59240;51.370;-0.486;2023-03-23T06:48:54;99758.44;;;10.58;80.08
71424;BME280;59240;51.370;-0.486;2023-03-23T06:51:23;99732.66;;;10.52;80.41
71424;BME280;59240;51.370;-0.486;2023-03-23T06:53:48;99720.63;;;10.48;80.78
71424;BME280;59240;51.370;-0.486;2023-03-23T06:56:17;99723.78;;;10.56;80.67
71424;BME280;59240;51.370;-0.486;2023-03-23T06:58:43;99755.78;;;10.81;80.10
71424;BME280;59240;51.370;-0.486;2023-03-23T07:01:11;99763.91;;;10.95;80.33
71424;BME280;59240;51.370;-0.486;2023-03-23T07:03:36;99748.66;;;10.86;80.16
71424;BME280;59240;51.370;-0.486;2023-03-23T07:06:05;99734.09;;;10.81;80.23
71424;BME280;59240;51.370;-0.486;2023-03-23T07:08:31;99742.28;;;10.93;80.57
71424;BME280;59240;51.370;-0.486;2023-03-23T07:10:57;99737.13;;;10.92;79.65
71424;BME280;59240;51.370;-0.486;2023-03-23T07:13:25;99714.00;;;10.84;79.74
71424;BME280;59240;51.370;-0.486;2023-03-23T07:15:59;99717.78;;;10.98;79.88
71424;BME280;59240;51.370;-0.486;2023-03-23T07:18:26;99722.75;;;11.04;79.79
71424;BME280;59240;51.370;-0.486;2023-03-23T07:20:56;99724.94;;;11.14;79.41
71424;BME280;59240;51.370;-0.486;2023-03-23T07:23:21;99729.97;;;11.19;78.80
71424;BME280;59240;51.370;-0.486;2023-03-23T07:25:50;99770.25;;;11.52;79.20
71424;BME280;59240;51.370;-0.486;2023-03-23T07:28:17;99730.88;;;11.38;78.78
71424;BME280;59240;51.370;-0.486;2023-03-23T07:30:44;99731.00;;;11.35;77.29
71424;BME280;59240;51.370;-0.486;2023-03-23T07:33:12;99733.88;;;11.49;77.58
71424;BME280;59240;51.370;-0.486;2023-03-23T07:35:38;99759.81;;;11.73;77.53
71424;BME280;59240;51.370;-0.486;2023-03-23T07:38:04;99786.09;;;11.90;76.38
71424;BME280;59240;51.370;-0.486;2023-03-23T07:40:39;99753.44;;;11.80;76.05
71424;BME280;59240;51.370;-0.486;2023-03-23T07:43:14;99747.97;;;11.86;77.22
71424;BME280;59240;51.370;-0.486;2023-03-23T07:45:40;99706.09;;;11.69;76.38
71424;BME280;59240;51.370;-0.486;2023-03-23T07:48:13;99709.91;;;11.82;75.75
71424;BME280;59240;51.370;-0.486;2023-03-23T07:50:39;99706.19;;;11.88;76.26
71424;BME280;59240;51.370;-0.486;2023-03-23T07:53:05;99728.97;;;12.03;75.13
71424;BME280;59240;51.370;-0.486;2023-03-23T07:55:34;99750.16;;;12.16;75.33
71424;BME280;59240;51.370;-0.486;2023-03-23T07:58:00;99787.72;;;12.32;73.04
71424;BME280;59240;51.370;-0.486;2023-03-23T08:00:25;99762.00;;;12.42;74.59
71424;BME280;59240;51.370;-0.486;2023-03-23T08:02:54;99758.19;;;12.49;74.83
71424;BME280;59240;51.370;-0.486;2023-03-23T08:05:23;99770.94;;;12.56;73.78
71424;BME280;59240;51.370;-0.486;2023-03-23T08:07:52;99767.13;;;12.64;73.16
71424;BME280;59240;51.370;-0.486;2023-03-23T08:10:19;99765.69;;;12.75;73.94
71424;BME280;59240;51.370;-0.486;2023-03-23T08:13:08;99811.94;;;13.11;72.69
71424;BME280;59240;51.370;-0.486;2023-03-23T08:15:34;99806.47;;;13.15;73.01
71424;BME280;59240;51.370;-0.486;2023-03-23T08:18:03;99809.00;;;13.36;72.63
71424;BME280;59240;51.370;-0.486;2023-03-23T08:20:29;99780.47;;;13.12;70.15
71424;BME280;59240;51.370;-0.486;2023-03-23T08:22:56;99786.97;;;13.23;70.62
71424;BME280;59240;51.370;-0.486;2023-03-23T08:25:32;99750.13;;;12.91;68.06
71424;BME280;59240;51.370;-0.486;2023-03-23T08:28:01;99787.09;;;13.20;70.10
71424;BME280;59240;51.370;-0.486;2023-03-23T08:30:28;99818.25;;;13.43;69.67
71424;BME280;59240;51.370;-0.486;2023-03-23T08:32:56;99820.00;;;13.43;70.76
71424;BME280;59240;51.370;-0.486;2023-03-23T08:35:31;99780.47;;;13.12;70.65
71424;BME280;59240;51.370;-0.486;2023-03-23T08:37:58;99795.28;;;13.31;70.52
71424;BME280;59240;51.370;-0.486;2023-03-23T08:40:26;99730.50;;;12.82;70.46
71424;BME280;59240;51.370;-0.486;2023-03-23T08:42:53;99735.03;;;12.79;70.63
71424;BME280;59240;51.370;-0.486;2023-03-23T08:45:26;99781.06;;;13.00;70.36
71424;BME280;59240;51.370;-0.486;2023-03-23T08:47:56;99767.81;;;12.86;70.27
71424;BME280;59240;51.370;-0.486;2023-03-23T08:50:35;99743.31;;;12.70;70.40
71424;BME280;59240;51.370;-0.486;2023-03-23T08:53:01;99763.50;;;12.85;70.61
71424;BME280;59240;51.370;-0.486;2023-03-23T08:55:28;99774.88;;;12.84;70.51
71424;BME280;59240;51.370;-0.486;2023-03-23T08:57:56;99815.41;;;13.11;70.69
71424;BME280;59240;51.370;-0.486;2023-03-23T09:00:22;99772.28;;;13.01;70.60
71424;BME280;59240;51.370;-0.486;2023-03-23T09:02:56;99743.81;;;12.95;69.86
71424;BME280;59240;51.370;-0.486;2023-03-23T09:05:33;99783.44;;;13.24;70.84
71424;BME280;59240;51.370;-0.486;2023-03-23T09:07:59;99764.44;;;13.20;70.51
71424;BME280;59240;51.370;-0.486;2023-03-23T09:10:28;99789.38;;;13.27;69.17
71424;BME280;59240;51.370;-0.486;2023-03-23T09:12:55;99823.50;;;13.60;69.70
71424;BME280;59240;51.370;-0.486;2023-03-23T09:15:22;99799.50;;;13.52;69.89
71424;BME280;59240;51.370;-0.486;2023-03-23T09:17:50;99755.59;;;13.23;67.21
71424;BME280;59240;51.370;-0.486;2023-03-23T09:20:19;99770.97;;;13.29;68.77
71424;BME280;59240;51.370;-0.486;2023-03-23T09:22:49;99769.13;;;13.31;68.17
71424;BME280;59240;51.370;-0.486;2023-03-23T09:25:18;99791.25;;;13.60;68.34
71424;BME280;59240;51.370;-0.486;2023-03-23T09:27:50;99798.25;;;13.77;67.77
71424;BME280;59240;51.370;-0.486;2023-03-23T09:30:23;99767.69;;;13.60;67.20
71424;BME280;59240;51.370;-0.486;2023-03-23T09:32:49;99760.53;;;13.46;66.78
71424;BME280;59240;51.370;-0.486;2023-03-23T09:35:15;99755.22;;;13.48;68.21
71424;BME280;59240;51.370;-0.486;2023-03-23T09:37:45;99802.31;;;13.65;67.50
71424;BME280;59240;51.370;-0.486;2023-03-23T09:40:28;99764.53;;;13.53;66.59
71424;BME280;59240;51.370;-0.486;2023-03-23T09:45:41;99766.91;;;13.58;66.77
71424;BME280;59240;51.370;-0.486;2023-03-23T09:54:20;99726.06;;;13.55;63.16
71424;BME280;59240;51.370;-0.486;2023-03-23T09:56:51;99742.97;;;13.83;64.03
71424;BME280;59240;51.370;-0.486;2023-03-23T09:59:23;99809.22;;;14.51;64.34
71424;BME280;59240;51.370;-0.486;2023-03-23T10:02:59;99787.50;;;14.81;62.75
71424;BME280;59240;51.370;-0.486;2023-03-23T10:05:12;99764.69;;;14.83;58.07
71424;BME280;59240;51.370;-0.486;2023-03-23T10:07:40;99747.69;;;14.90;58.58
71424;BME280;59240;51.370;-0.486;2023-03-23T10:10:12;99781.25;;;14.99;58.22
71424;BME280;59240;51.370;-0.486;2023-03-23T10:12:47;99804.44;;;15.07;60.03
71424;BME280;59240;51.370;-0.486;2023-03-23T10:15:26;99781.78;;;14.90;59.44
71424;BME280;59240;51.370;-0.486;2023-03-23T10:18:42;99810.25;;;14.96;59.71
71424;BME280;59240;51.370;-0.486;2023-03-23T10:21:14;99802.75;;;14.90;61.18
71424;BME280;59240;51.370;-0.486;2023-03-23T10:28:50;99816.44;;;15.26;58.31
71424;BME280;59240;51.370;-0.486;2023-03-23T10:31:27;99731.50;;;14.82;57.97
71424;BME280;59240;51.370;-0.486;2023-03-23T10:34:02;99783.84;;;15.15;58.96
71424;BME280;59240;51.370;-0.486;2023-03-23T10:39:55;99784.69;;;15.61;57.65
71424;BME280;59240;51.370;-0.486;2023-03-23T10:42:27;99782.16;;;15.59;57.77
71424;BME280;59240;51.370;-0.486;2023-03-23T10:44:58;99799.41;;;15.79;59.95
71424;BME280;59240;51.370;-0.486;2023-03-23T10:47:27;99787.72;;;15.69;58.93
71424;BME280;59240;51.370;-0.486;2023-03-23T10:49:59;99761.16;;;15.59;58.68
71424;BME280;59240;51.370;-0.486;2023-03-23T10:52:36;99781.31;;;15.59;58.47
71424;BME280;59240;51.370;-0.486;2023-03-23T10:55:14;99759.84;;;15.37;58.32
71424;BME280;59240;51.370;-0.486;2023-03-23T10:57:59;99790.72;;;15.47;57.99
71424;BME280;59240;51.370;-0.486;2023-03-23T11:00:27;99779.75;;;15.41;59.68
71424;BME280;59240;51.370;-0.486;2023-03-23T11:03:03;99823.91;;;15.64;59.66
71424;BME280;59240;51.370;-0.486;2023-03-23T11:05:42;99801.00;;;15.36;60.24
71424;BME280;59240;51.370;-0.486;2023-03-23T11:08:21;99737.59;;;14.98;61.32
71424;BME280;59240;51.370;-0.486;2023-03-23T11:10:59;99807.50;;;15.45;60.74
71424;BME280;59240;51.370;-0.486;2023-03-23T11:13:32;99788.50;;;15.25;60.65
71424;BME280;59240;51.370;-0.486;2023-03-23T11:15:59;99819.91;;;15.57;61.79
71424;BME280;59240;51.370;-0.486;2023-03-23T11:18:40;99798.59;;;15.47;59.67
71424;BME280;59240;51.370;-0.486;2023-03-23T11:21:15;99762.88;;;15.15;59.45
71424;BME280;59240;51.370;-0.486;2023-03-23T11:24:08;99815.00;;;15.51;59.94
71424;BME280;59240;51.370;-0.486;2023-03-23T11:26:35;99775.47;;;15.24;60.53
71424;BME280;59240;51.370;-0.486;2023-03-23T11:29:20;99819.94;;;15.41;58.67
71424;BME280;59240;51.370;-0.486;2023-03-23T11:34:29;99827.78;;;15.73;60.04
71424;BME280;59240;51.370;-0.486;2023-03-23T11:37:05;99736.06;;;15.40;59.33
71424;BME280;59240;51.370;-0.486;2023-03-23T11:39:54;99809.91;;;15.94;58.55
71424;BME280;59240;51.370;-0.486;2023-03-23T11:45:36;99821.16;;;15.96;59.11
71424;BME280;59240;51.370;-0.486;2023-03-23T11:48:12;99812.84;;;16.03;59.56
71424;BME280;59240;51.370;-0.486;2023-03-23T11:50:51;99819.84;;;15.89;57.47
71424;BME280;59240;51.370;-0.486;2023-03-23T11:56:34;99755.50;;;15.81;57.72
71424;BME280;59240;51.370;-0.486;2023-03-23T11:59:11;99745.75;;;15.98;58.20
71424;BME280;59240;51.370;-0.486;2023-03-23T12:04:32;99763.09;;;16.43;56.74
71424;BME280;59240;51.370;-0.486;2023-03-23T12:10:27;99772.38;;;16.63;56.64
71424;BME280;59240;51.370;-0.486;2023-03-23T12:18:28;99761.53;;;16.67;55.89
71424;BME280;59240;51.370;-0.486;2023-03-23T12:21:36;99747.97;;;16.61;55.23
71424;BME280;59240;51.370;-0.486;2023-03-23T12:29:49;99759.78;;;16.54;54.86
71424;BME280;59240;51.370;-0.486;2023-03-23T12:32:31;99771.25;;;16.53;55.85
71424;BME280;59240;51.370;-0.486;2023-03-23T12:41:01;99761.81;;;17.18;52.96
71424;BME280;59240;51.370;-0.486;2023-03-23T12:43:51;99772.56;;;17.28;50.12
71424;BME280;59240;51.370;-0.486;2023-03-23T12:47:50;99690.88;;;16.90;49.96
71424;BME280;59240;51.370;-0.486;2023-03-23T12:49:57;99693.97;;;16.97;47.63
71424;BME280;59240;51.370;-0.486;2023-03-23T12:52:53;99730.03;;;17.34;50.40
71424;BME280;59240;51.370;-0.486;2023-03-23T12:58:30;99740.50;;;17.61;47.99
71424;BME280;59240;51.370;-0.486;2023-03-23T13:01:04;99706.91;;;17.39;49.17
71424;BME280;59240;51.370;-0.486;2023-03-23T13:03:45;99758.13;;;17.61;47.42
71424;BME280;59240;51.370;-0.486;2023-03-23T13:06:26;99716.63;;;17.12;47.28
71424;BME280;59240;51.370;-0.486;2023-03-23T13:11:41;99715.25;;;16.65;50.19
71424;BME280;59240;51.370;-0.486;2023-03-23T13:17:38;99768.41;;;16.84;50.43
71424;BME280;59240;51.370;-0.486;2023-03-23T13:20:22;99748.66;;;16.91;50.70
71424;BME280;59240;51.370;-0.486;2023-03-23T13:23:17;99685.09;;;16.44;51.15
71424;BME280;59240;51.370;-0.486;2023-03-23T13:25:59;99683.41;;;16.42;51.66
71424;BME280;59240;51.370;-0.486;2023-03-23T13:28:32;99744.38;;;16.76;51.76
71424;BME280;59240;51.370;-0.486;2023-03-23T13:31:12;99731.53;;;16.72;50.92
71424;BME280;59240;51.370;-0.486;2023-03-23T13:33:39;99703.84;;;16.52;51.78
71424;BME280;59240;51.370;-0.486;2023-03-23T13:36:14;99721.88;;;16.44;51.85
71424;BME280;59240;51.370;-0.486;2023-03-23T13:38:50;99669.53;;;16.12;51.94
71424;BME280;59240;51.370;-0.486;2023-03-23T13:41:18;99700.50;;;16.35;53.07
71424;BME280;59240;51.370;-0.486;2023-03-23T13:43:45;99723.88;;;16.67;53.04
71424;BME280;59240;51.370;-0.486;2023-03-23T13:46:29;99734.38;;;16.95;52.26
71424;BME280;59240;51.370;-0.486;2023-03-23T13:49:16;99670.56;;;16.65;49.97
71424;BME280;59240;51.370;-0.486;2023-03-23T13:52:01;99687.06;;;16.67;50.86
71424;BME280;59240;51.370;-0.486;2023-03-23T13:54:40;99667.75;;;16.68;51.46
71424;BME280;59240;51.370;-0.486;2023-03-23T14:05:38;99723.03;;;16.66;51.88
71424;BME280;59240;51.370;-0.486;2023-03-23T14:10:39;99710.34;;;16.32;52.27
71424;BME280;59240;51.370;-0.486;2023-03-23T14:13:23;99720.41;;;16.25;53.70
71424;BME280;59240;51.370;-0.486;2023-03-23T14:16:04;99637.50;;;15.64;54.31
71424;BME280;59240;51.370;-0.486;2023-03-23T14:23:53;99694.16;;;15.82;56.06
71424;BME280;59240;51.370;-0.486;2023-03-23T14:26:34;99645.16;;;15.53;55.73
71424;BME280;59240;51.370;-0.486;2023-03-23T14:29:05;99667.16;;;15.66;55.97
71424;BME280;59240;51.370;-0.486;2023-03-23T14:31:31;99685.44;;;15.68;56.79
71424;BME280;59240;51.370;-0.486;2023-03-23T14:34:11;99675.03;;;15.66;56.85
71424;BME280;59240;51.370;-0.486;2023-03-23T14:36:39;99686.47;;;15.65;56.60